Time;durP1;ratioP1;P1;durP2;ratioP2;P2;SDS_P1;SDS_P2;PMS_P1;PMS_P2;Temp;Humidity;BMP_temperature;BMP_pressure;BME280_temperature;BME280_humidity;BME280_pressure;Samples;Min_cycle;Max_cycle;Signal;HPM_P1;HPM_P2
2021/12/28 00:01:01;;;;;;;;;;;;;;;;;;5096068;28;20010;-75
2021/12/28 00:03:27;;;;;;;;;;;;;;;;;;5095940;28;20396;-75
2021/12/28 00:05:52;;;;;;;;;;;;;;;;;;5095733;28;20358;-75
2021/12/28 00:08:19;;;;;;;;;;;;;;;;;;5095358;28;19916;-75
2021/12/28 00:10:44;;;;;;;;;;;;;;;;;;5095733;28;19916;-75
2021/12/28 00:13:10;;;;;;;;;;;;;;;;;;5095357;28;20424;-75
2021/12/28 00:15:48;;;;;;;;;;;;;;;;;;5094245;28;19916;-75
2021/12/28 00:18:14;;;;;;;;;;;;;;;;;;5077315;28;19920;-75
2021/12/28 00:20:41;;;;;;;;;;;;;;;;;;5094252;28;20015;-75
2021/12/28 00:23:08;;;;;;;;;;;;;;;;;;5095619;28;19916;-75
2021/12/28 00:25:33;;;;;;;;;;;;;;;;;;5095115;28;20011;-76
2021/12/28 00:27:59;;;;;;;;;;;;;;;;;;5095011;28;20010;-76
2021/12/28 00:30:25;;;;;;;;;;;;;;;;;;5095288;28;19923;-76
2021/12/28 00:32:56;;;;;;;;;;;;;;;;;;5095087;28;19938;-75
2021/12/28 00:35:22;;;;;;;;;;;;;;;;;;5095190;28;20243;-76
2021/12/28 00:37:48;;;;;;;;;;;;;;;;;;5094407;28;20379;-76
2021/12/28 00:40:13;;;;;;;;;;;;;;;;;;5095066;28;19998;-76
2021/12/28 00:42:39;;;;;;;;;;;;;;;;;;5095283;28;19916;-75
2021/12/28 00:45:04;;;;;;;;;;;;;;;;;;5094952;28;19923;-76
2021/12/28 00:47:29;;;;;;;;;;;;;;;;;;5094827;28;19967;-76
2021/12/28 00:49:56;;;;;;;;;;;;;;;;;;5094512;28;19924;-76
2021/12/28 00:52:21;;;;;;;;;;;;;;;;;;5095000;28;19920;-75
2021/12/28 00:54:46;;;;;;;;;;;;;;;;;;5094698;28;19916;-75
2021/12/28 00:57:12;;;;;;;;;;;;;;;;;;5093627;28;19916;-76
2021/12/28 00:59:37;;;;;;;;;;;;;;;;;;5094594;28;20016;-73
2021/12/28 01:02:02;;;;;;;;;;;;;;;;;;5094675;28;19924;-74
2021/12/28 01:04:28;;;;;;;;;;;;;;;;;;5094106;28;19920;-74
2021/12/28 01:06:53;;;;;;;;;;;;;;;;;;5093629;28;19928;-74
2021/12/28 01:09:18;;;;;;;;;;;;;;;;;;5094312;28;19969;-74
2021/12/28 01:11:44;;;;;;;;;;;;;;;;;;5094399;28;19916;-74
2021/12/28 01:14:09;;;;;;;;;;;;;;;;;;5093772;28;19967;-74
2021/12/28 01:16:34;;;;;;;;;;;;;;;;;;5094044;28;19916;-74
2021/12/28 01:19:00;;;;;;;;;;;;;;;;;;5094307;28;19961;-74
2021/12/28 01:21:25;;;;;;;;;;;;;;;;;;5094302;28;20405;-74
2021/12/28 01:23:50;;;;;;;;;;;;;;;;;;5094293;28;19916;-75
2021/12/28 01:26:16;;;;;;;;;;;;;;;;;;5094219;28;19920;-75
2021/12/28 01:28:41;;;;;;;;;;;;;;;;;;5094421;28;20003;-75
2021/12/28 01:31:06;;;;;;;;;;;;;;;;;;5093062;28;19916;-75
2021/12/28 01:33:31;;;;;;;;;;;;;;;;;;5094281;28;20373;-74
2021/12/28 01:35:58;;;;;;;;;;;;;;;;;;5094026;28;20519;-74
2021/12/28 01:38:24;;;;;;;;;;;;;;;;;;5093105;28;20598;-74
2021/12/28 01:40:49;;;;;;;;;;;;;;;;;;5094024;28;19916;-74
2021/12/28 01:43:17;;;;;;;;;;;;;;;;;;5094055;28;20043;-74
2021/12/28 01:45:45;;;;;;;;;;;;;;;;;;5092654;28;20019;-74
2021/12/28 01:48:12;;;;;;;;;;;;;;;;;;5093740;28;19924;-75
2021/12/28 01:50:38;;;;;;;;;;;;;;;;;;5093585;28;19919;-74
2021/12/28 01:53:04;;;;;;;;;;;;;;;;;;5093855;28;20436;-74
2021/12/28 01:55:30;;;;;;;;;;;;;;;;;;5094092;28;20258;-74
2021/12/28 01:57:55;;;;;;;;;;;;;;;;;;5093984;28;19923;-74
2021/12/28 02:00:20;;;;;;;;;;;;;;;;;;5093956;28;19928;-74
2021/12/28 02:02:46;;;;;;;;;;;;;;;;;;5093688;28;19995;-74
2021/12/28 02:05:11;;;;;;;;;;;;;;;;;;5093091;28;20461;-74
2021/12/28 02:07:36;;;;;;;;;;;;;;;;;;5093704;28;19920;-74
2021/12/28 02:10:02;;;;;;;;;;;;;;;;;;5093629;28;19916;-74
2021/12/28 02:12:29;;;;;;;;;;;;;;;;;;5093730;28;19938;-74
2021/12/28 02:14:54;;;;;;;;;;;;;;;;;;5091801;28;20008;-74
2021/12/28 02:17:19;;;;;;;;;;;;;;;;;;5093537;28;20420;-74
2021/12/28 02:19:45;;;;;;;;;;;;;;;;;;5096289;28;19920;-74
2021/12/28 02:22:10;;;;;;;;;;;;;;;;;;5097594;28;19961;-74
2021/12/28 02:24:35;;;;;;;;;;;;;;;;;;5097989;28;19916;-74
2021/12/28 02:27:01;;;;;;;;;;;;;;;;;;5096259;28;19924;-74
2021/12/28 02:29:26;;;;;;;;;;;;;;;;;;5096333;28;20014;-74
2021/12/28 02:31:55;;;;;;;;;;;;;;;;;;5097704;28;20030;-74
2021/12/28 02:34:24;;;;;;;;;;;;;;;;;;5097355;28;20015;-74
2021/12/28 02:36:49;;;;;;;;;;;;;;;;;;5096374;28;19962;-74
2021/12/28 02:39:14;;;;;;;;;;;;;;;;;;5097555;28;19960;-74
2021/12/28 02:41:40;;;;;;;;;;;;;;;;;;5097373;28;19923;-74
2021/12/28 02:44:05;;;;;;;;;;;;;;;;;;5097606;28;20007;-74
2021/12/28 02:46:31;;;;;;;;;;;;;;;;;;5097011;28;20262;-74
2021/12/28 02:48:56;;;;;;;;;;;;;;;;;;5097078;28;20343;-74
2021/12/28 02:51:21;;;;;;;;;;;;;;;;;;5097369;28;19916;-74
2021/12/28 02:53:47;;;;;;;;;;;;;;;;;;5097196;28;20003;-74
2021/12/28 02:56:12;;;;;;;;;;;;;;;;;;5097121;28;20438;-74
2021/12/28 02:58:38;;;;;;;;;;;;;;;;;;5097245;28;19934;-74
2021/12/28 03:01:19;;;;;;;;;;;;;;;;;;5097203;28;20475;-74
2021/12/28 03:03:45;;;;;;;;;;;;;;;;;;5096938;28;20058;-74
2021/12/28 03:06:12;;;;;;;;;;;;;;;;;;5096686;28;20297;-74
2021/12/28 03:08:39;;;;;;;;;;;;;;;;;;5096018;28;19916;-74
2021/12/28 03:11:05;;;;;;;;;;;;;;;;;;5096618;28;19920;-74
2021/12/28 03:13:33;;;;;;;;;;;;;;;;;;5096766;28;20369;-74
2021/12/28 03:15:58;;;;;;;;;;;;;;;;;;5096570;28;20380;-74
2021/12/28 03:18:23;;;;;;;;;;;;;;;;;;5096567;28;19927;-74
2021/12/28 03:20:49;;;;;;;;;;;;;;;;;;5096605;28;19923;-74
2021/12/28 03:23:19;;;;;;;;;;;;;;;;;;5095558;28;19923;-74
2021/12/28 03:25:44;;;;;;;;;;;;;;;;;;5096556;28;19917;-74
2021/12/28 03:28:29;;;;;;;;;;;;;;;;;;5094252;28;19920;-74
2021/12/28 03:30:57;;;;;;;;;;;;;;;;;;5095350;28;20296;-74
2021/12/28 03:33:23;;;;;;;;;;;;;;;;;;5095413;28;19923;-74
2021/12/28 03:35:48;;;;;;;;;;;;;;;;;;5096291;28;19999;-73
2021/12/28 03:38:14;;;;;;;;;;;;;;;;;;5094493;28;20080;-74
2021/12/28 03:40:39;;;;;;;;;;;;;;;;;;5096366;28;20011;-73
2021/12/28 03:43:05;;;;;;;;;;;;;;;;;;5096207;28;19959;-74
2021/12/28 03:45:30;;;;;;;;;;;;;;;;;;5095857;28;19955;-74
2021/12/28 03:47:55;;;;;;;;;;;;;;;;;;5096175;28;19920;-74
2021/12/28 03:50:22;;;;;;;;;;;;;;;;;;5095329;28;19962;-74
2021/12/28 03:52:47;;;;;;;;;;;;;;;;;;5096032;28;19962;-73
2021/12/28 03:55:13;;;;;;;;;;;;;;;;;;5096040;28;19920;-74
2021/12/28 03:57:39;;;;;;;;;;;;;;;;;;5095987;28;19916;-74
2021/12/28 04:00:08;;;;;;;;;;;;;;;;;;5095766;28;19951;-73
2021/12/28 04:02:33;;;;;;;;;;;;;;;;;;5094844;28;19916;-74
2021/12/28 04:04:59;;;;;;;;;;;;;;;;;;5095055;28;19923;-74
2021/12/28 04:07:24;;;;;;;;;;;;;;;;;;5096029;28;19920;-74
2021/12/28 04:12:15;;;;;;;;;;;;;;;;;;5095647;28;20014;-74
2021/12/28 04:14:40;;;;;;;;;;;;;;;;;;5095784;28;19923;-74
2021/12/28 04:17:05;;;;;;;;;;;;;;;;;;5094246;28;19916;-74
2021/12/28 04:19:31;;;;;;;;;;;;;;;;;;5095487;28;19920;-73
2021/12/28 04:21:56;;;;;;;;;;;;;;;;;;5095722;28;19917;-74
2021/12/28 04:24:21;;;;;;;;;;;;;;;;;;5095602;28;19916;-74
2021/12/28 04:26:47;;;;;;;;;;;;;;;;;;5095218;28;19924;-74
2021/12/28 04:29:12;;;;;;;;;;;;;;;;;;5094212;28;19919;-74
2021/12/28 04:31:37;;;;;;;;;;;;;;;;;;5095355;28;19938;-74
2021/12/28 04:34:03;;;;;;;;;;;;;;;;;;5094661;28;20003;-74
2021/12/28 04:36:28;;;;;;;;;;;;;;;;;;5093886;28;20018;-74
2021/12/28 04:38:53;;;;;;;;;;;;;;;;;;5095420;28;19920;-74
2021/12/28 04:41:19;;;;;;;;;;;;;;;;;;5094874;28;19923;-74
2021/12/28 04:43:46;;;;;;;;;;;;;;;;;;5095074;28;19961;-74
2021/12/28 04:46:11;;;;;;;;;;;;;;;;;;5094829;28;19920;-74
2021/12/28 04:48:37;;;;;;;;;;;;;;;;;;5094626;28;20339;-74
2021/12/28 04:51:02;;;;;;;;;;;;;;;;;;5094911;28;19916;-74
2021/12/28 04:53:28;;;;;;;;;;;;;;;;;;5094743;28;19916;-74
2021/12/28 04:55:53;;;;;;;;;;;;;;;;;;5094644;28;19919;-74
2021/12/28 04:58:18;;;;;;;;;;;;;;;;;;5094862;28;19908;-74
2021/12/28 05:00:45;;;;;;;;;;;;;;;;;;5094768;28;20010;-74
2021/12/28 05:03:11;;;;;;;;;;;;;;;;;;5094088;28;20461;-74
2021/12/28 05:05:39;;;;;;;;;;;;;;;;;;5094674;28;19958;-74
2021/12/28 05:08:04;;;;;;;;;;;;;;;;;;5094670;28;19984;-74
2021/12/28 05:10:30;;;;;;;;;;;;;;;;;;5094182;28;20307;-74
2021/12/28 05:12:55;;;;;;;;;;;;;;;;;;5094679;28;19923;-74
2021/12/28 05:15:21;;;;;;;;;;;;;;;;;;5094527;28;19916;-74
2021/12/28 05:17:46;;;;;;;;;;;;;;;;;;5094397;28;19923;-74
2021/12/28 05:20:12;;;;;;;;;;;;;;;;;;5094289;28;19916;-74
2021/12/28 05:22:37;;;;;;;;;;;;;;;;;;5094504;28;19916;-74
2021/12/28 05:25:03;;;;;;;;;;;;;;;;;;5094397;28;20308;-74
2021/12/28 05:27:29;;;;;;;;;;;;;;;;;;5094224;28;20286;-74
2021/12/28 05:29:54;;;;;;;;;;;;;;;;;;5094251;28;19920;-74
2021/12/28 05:32:19;;;;;;;;;;;;;;;;;;5094363;28;20492;-74
2021/12/28 05:34:44;;;;;;;;;;;;;;;;;;5093475;28;20057;-74
2021/12/28 05:37:10;;;;;;;;;;;;;;;;;;5093680;28;19969;-74
2021/12/28 05:39:36;;;;;;;;;;;;;;;;;;5094016;28;19939;-74
2021/12/28 05:42:02;;;;;;;;;;;;;;;;;;5094180;28;19916;-74
2021/12/28 05:44:27;;;;;;;;;;;;;;;;;;5093246;28;20384;-74
2021/12/28 05:46:54;;;;;;;;;;;;;;;;;;5093429;28;19926;-74
2021/12/28 05:49:19;;;;;;;;;;;;;;;;;;5094138;28;19916;-74
2021/12/28 05:51:44;;;;;;;;;;;;;;;;;;5093600;28;20395;-74
2021/12/28 05:54:11;;;;;;;;;;;;;;;;;;5090206;28;20365;-74
2021/12/28 05:56:37;;;;;;;;;;;;;;;;;;5093268;28;19916;-74
2021/12/28 05:59:02;;;;;;;;;;;;;;;;;;5093803;28;20015;-74
2021/12/28 06:01:28;;;;;;;;;;;;;;;;;;5093884;28;19920;-74
2021/12/28 06:03:53;;;;;;;;;;;;;;;;;;5093860;28;19920;-74
2021/12/28 06:06:18;;;;;;;;;;;;;;;;;;5092905;28;20250;-74
2021/12/28 06:08:44;;;;;;;;;;;;;;;;;;5093801;28;19920;-74
2021/12/28 06:11:12;;;;;;;;;;;;;;;;;;5093632;28;19939;-74
2021/12/28 06:13:40;;;;;;;;;;;;;;;;;;5093570;28;20012;-73
2021/12/28 06:16:05;;;;;;;;;;;;;;;;;;5092385;28;20326;-74
2021/12/28 06:18:31;;;;;;;;;;;;;;;;;;5093788;28;20011;-74
2021/12/28 06:20:56;;;;;;;;;;;;;;;;;;5093652;28;20010;-74
2021/12/28 06:23:21;;;;;;;;;;;;;;;;;;5093355;28;19916;-74
2021/12/28 06:25:47;;;;;;;;;;;;;;;;;;5093701;28;19970;-74
2021/12/28 06:28:12;;;;;;;;;;;;;;;;;;5093704;28;19966;-74
2021/12/28 06:30:37;;;;;;;;;;;;;;;;;;5093910;28;19916;-74
2021/12/28 06:33:03;;;;;;;;;;;;;;;;;;5093698;28;19916;-74
2021/12/28 06:35:28;;;;;;;;;;;;;;;;;;5093517;28;20401;-74
2021/12/28 06:37:53;;;;;;;;;;;;;;;;;;5092431;28;19928;-74
2021/12/28 06:40:19;;;;;;;;;;;;;;;;;;5093197;28;19916;-74
2021/12/28 06:42:44;;;;;;;;;;;;;;;;;;5093438;28;19916;-74
2021/12/28 06:45:09;;;;;;;;;;;;;;;;;;5093262;28;20379;-74
2021/12/28 06:47:35;;;;;;;;;;;;;;;;;;5093463;28;19920;-74
2021/12/28 06:50:00;;;;;;;;;;;;;;;;;;5092702;28;19916;-73
2021/12/28 06:52:26;;;;;;;;;;;;;;;;;;5093147;28;19916;-74
2021/12/28 06:54:51;;;;;;;;;;;;;;;;;;5093209;28;19955;-74
2021/12/28 06:57:17;;;;;;;;;;;;;;;;;;5091967;28;19963;-74
2021/12/28 06:59:43;;;;;;;;;;;;;;;;;;5092703;28;19920;-73
2021/12/28 07:02:16;;;;;;;;;;;;;;;;;;5092877;28;19922;-74
2021/12/28 07:04:42;;;;;;;;;;;;;;;;;;5092931;28;19961;-74
2021/12/28 07:07:08;;;;;;;;;;;;;;;;;;5095945;28;20422;-74
2021/12/28 07:09:33;;;;;;;;;;;;;;;;;;5097063;28;19916;-74
2021/12/28 07:11:59;;;;;;;;;;;;;;;;;;5095510;28;20393;-74
2021/12/28 07:14:24;;;;;;;;;;;;;;;;;;5097000;28;19916;-74
2021/12/28 07:16:50;;;;;;;;;;;;;;;;;;5096616;28;20354;-74
2021/12/28 07:19:15;;;;;;;;;;;;;;;;;;5096703;28;20428;-74
2021/12/28 07:21:40;;;;;;;;;;;;;;;;;;5096547;28;19953;-74
2021/12/28 07:24:06;;;;;;;;;;;;;;;;;;5095145;28;19916;-74
2021/12/28 07:26:32;;;;;;;;;;;;;;;;;;5096561;28;19924;-73
2021/12/28 07:28:57;;;;;;;;;;;;;;;;;;5096490;28;19924;-74
2021/12/28 07:31:22;;;;;;;;;;;;;;;;;;5096637;28;20045;-74
2021/12/28 07:33:48;;;;;;;;;;;;;;;;;;5096651;28;19916;-74
2021/12/28 07:36:13;;;;;;;;;;;;;;;;;;5095160;28;20281;-74
2021/12/28 07:38:38;;;;;;;;;;;;;;;;;;5095516;28;19924;-73
2021/12/28 07:41:04;;;;;;;;;;;;;;;;;;5094836;28;19920;-74
2021/12/28 07:43:29;;;;;;;;;;;;;;;;;;5096421;28;20267;-74
2021/12/28 07:45:54;;;;;;;;;;;;;;;;;;5096138;28;20006;-73
2021/12/28 07:48:20;;;;;;;;;;;;;;;;;;5096263;28;19927;-73
2021/12/28 07:50:45;;;;;;;;;;;;;;;;;;5095995;28;19966;-73
2021/12/28 07:53:10;;;;;;;;;;;;;;;;;;5095168;28;20377;-73
2021/12/28 07:55:35;;;;;;;;;;;;;;;;;;5094547;28;19923;-73
2021/12/28 07:58:01;;;;;;;;;;;;;;;;;;5095963;28;19916;-73
2021/12/28 08:00:28;;;;;;;;;;;;;;;;;;5095810;28;19947;-75
2021/12/28 08:02:54;;;;;;;;;;;;;;;;;;5096107;28;19919;-74
2021/12/28 08:05:19;;;;;;;;;;;;;;;;;;5095665;28;20410;-74
2021/12/28 08:07:45;;;;;;;;;;;;;;;;;;5094360;28;19946;-73
2021/12/28 08:10:11;;;;;;;;;;;;;;;;;;5094649;28;19999;-74
2021/12/28 08:12:37;;;;;;;;;;;;;;;;;;5094707;28;20534;-73
2021/12/28 08:15:03;;;;;;;;;;;;;;;;;;5094798;28;19916;-74
2021/12/28 08:17:29;;;;;;;;;;;;;;;;;;5095082;28;19919;-74
2021/12/28 08:19:54;;;;;;;;;;;;;;;;;;5095073;28;20018;-74
2021/12/28 08:22:19;;;;;;;;;;;;;;;;;;5095640;28;20030;-73
2021/12/28 08:24:45;;;;;;;;;;;;;;;;;;5095492;28;20280;-73
2021/12/28 08:27:10;;;;;;;;;;;;;;;;;;5095237;28;19966;-73
2021/12/28 08:29:35;;;;;;;;;;;;;;;;;;5095206;28;19916;-73
2021/12/28 08:32:01;;;;;;;;;;;;;;;;;;5095068;28;20016;-75
2021/12/28 08:34:26;;;;;;;;;;;;;;;;;;5095375;28;20266;-73
2021/12/28 08:36:51;;;;;;;;;;;;;;;;;;5094617;28;19916;-73
2021/12/28 08:39:17;;;;;;;;;;;;;;;;;;5095277;28;19912;-73
2021/12/28 08:41:42;;;;;;;;;;;;;;;;;;5095262;28;19923;-74
2021/12/28 08:44:07;;;;;;;;;;;;;;;;;;5095207;28;20342;-73
2021/12/28 08:46:33;;;;;;;;;;;;;;;;;;5094689;28;20304;-73
2021/12/28 08:48:58;;;;;;;;;;;;;;;;;;5095070;28;20022;-73
2021/12/28 08:51:24;;;;;;;;;;;;;;;;;;5094740;28;19916;-74
2021/12/28 08:53:49;;;;;;;;;;;;;;;;;;5093864;28;19923;-73
2021/12/28 08:56:14;;;;;;;;;;;;;;;;;;5093439;28;19916;-74
2021/12/28 08:58:40;;;;;;;;;;;;;;;;;;5094994;28;19961;-74
2021/12/28 09:01:06;;;;;;;;;;;;;;;;;;5094771;28;19916;-74
2021/12/28 09:03:32;;;;;;;;;;;;;;;;;;5094700;28;20405;-73
2021/12/28 09:05:57;;;;;;;;;;;;;;;;;;5094419;28;20430;-73
2021/12/28 09:08:23;;;;;;;;;;;;;;;;;;5094530;28;19924;-73
2021/12/28 09:10:48;;;;;;;;;;;;;;;;;;5094376;28;19923;-73
2021/12/28 09:13:14;;;;;;;;;;;;;;;;;;5091902;28;19962;-73
2021/12/28 09:15:40;;;;;;;;;;;;;;;;;;5093381;28;19920;-74
2021/12/28 09:18:06;;;;;;;;;;;;;;;;;;5094569;28;20338;-73
2021/12/28 09:20:31;;;;;;;;;;;;;;;;;;5094320;28;19972;-73
2021/12/28 09:22:56;;;;;;;;;;;;;;;;;;5094412;28;20428;-73
2021/12/28 09:25:22;;;;;;;;;;;;;;;;;;5094114;28;19916;-72
2021/12/28 09:27:48;;;;;;;;;;;;;;;;;;5093980;28;19920;-72
2021/12/28 09:30:14;;;;;;;;;;;;;;;;;;5094441;28;20361;-74
2021/12/28 09:32:39;;;;;;;;;;;;;;;;;;5094254;28;19912;-74
2021/12/28 09:35:06;;;;;;;;;;;;;;;;;;5092732;28;19966;-74
2021/12/28 09:37:33;;;;;;;;;;;;;;;;;;5089633;28;19916;-75
2021/12/28 09:39:59;;;;;;;;;;;;;;;;;;5073996;28;19962;-75
2021/12/28 09:42:24;;;;;;;;;;;;;;;;;;5074082;28;20263;-73
2021/12/28 09:44:51;;;;;;;;;;;;;;;;;;5073852;28;19917;-73
2021/12/28 09:47:17;;;;;;;;;;;;;;;;;;5073269;28;19920;-73
2021/12/28 09:49:45;;;;;;;;;;;;;;;;;;5072843;28;20144;-73
2021/12/28 09:52:10;;;;;;;;;;;;;;;;;;5073634;28;19924;-73
2021/12/28 09:54:36;;;;;;;;;;;;;;;;;;5087911;28;19916;-73
2021/12/28 09:57:02;;;;;;;;;;;;;;;;;;5093485;28;19942;-73
2021/12/28 09:59:29;;;;;;;;;;;;;;;;;;5093858;28;19916;-73
2021/12/28 10:01:54;;;;;;;;;;;;;;;;;;5094026;28;19970;-73
2021/12/28 10:04:20;;;;;;;;;;;;;;;;;;5092579;28;19955;-74
2021/12/28 10:06:45;;;;;;;;;;;;;;;;;;5092806;28;19966;-73
2021/12/28 10:09:12;;;;;;;;;;;;;;;;;;5093898;28;20273;-74
2021/12/28 10:11:39;;;;;;;;;;;;;;;;;;5094100;28;19919;-74
2021/12/28 10:14:10;;;;;;;;;;;;;;;;;;5093670;28;20389;-73
2021/12/28 10:16:44;;;;;;;;;;;;;;;;;;5093422;28;19916;-73
2021/12/28 10:19:28;;;;;;;;;;;;;;;;;;5093563;28;20405;-73
2021/12/28 10:21:53;;;;;;;;;;;;;;;;;;5093639;28;19916;-74
2021/12/28 10:24:37;;;;;;;;;;;;;;;;;;5093392;28;19916;-73
2021/12/28 10:27:09;;;;;;;;;;;;;;;;;;5093535;28;19920;-73
2021/12/28 10:29:34;;;;;;;;;;;;;;;;;;5093555;28;19920;-72
2021/12/28 10:32:16;;;;;;;;;;;;;;;;;;5093693;28;20323;-73
2021/12/28 10:34:48;;;;;;;;;;;;;;;;;;5092842;28;19923;-73
2021/12/28 10:37:18;;;;;;;;;;;;;;;;;;5093513;28;20007;-73
2021/12/28 10:39:48;;;;;;;;;;;;;;;;;;5093204;28;19959;-73
2021/12/28 10:42:32;;;;;;;;;;;;;;;;;;5097616;28;20321;-73
2021/12/28 10:44:58;;;;;;;;;;;;;;;;;;5097400;28;20373;-72
2021/12/28 10:47:27;;;;;;;;;;;;;;;;;;5097192;28;19927;-72
2021/12/28 10:49:52;;;;;;;;;;;;;;;;;;5096086;28;19920;-72
2021/12/28 10:52:38;;;;;;;;;;;;;;;;;;5097024;28;20047;-72
2021/12/28 10:55:26;;;;;;;;;;;;;;;;;;5097136;28;19916;-73
2021/12/28 10:57:52;;;;;;;;;;;;;;;;;;5088416;28;19916;-74
2021/12/28 11:00:29;;;;;;;;;;;;;;;;;;5097123;28;20297;-73
2021/12/28 11:03:14;;;;;;;;;;;;;;;;;;5096274;28;19920;-74
2021/12/28 11:05:39;;;;;;;;;;;;;;;;;;5096815;28;19916;-74
2021/12/28 11:08:07;;;;;;;;;;;;;;;;;;5096197;28;19927;-74
2021/12/28 11:10:33;;;;;;;;;;;;;;;;;;5096925;28;20011;-74
2021/12/28 11:12:58;;;;;;;;;;;;;;;;;;5096636;28;19986;-74
2021/12/28 11:15:24;;;;;;;;;;;;;;;;;;5095845;28;19926;-73
2021/12/28 11:17:50;;;;;;;;;;;;;;;;;;5096878;28;20366;-73
2021/12/28 11:20:16;;;;;;;;;;;;;;;;;;5096779;28;19923;-73
2021/12/28 11:23:01;;;;;;;;;;;;;;;;;;5096775;28;19920;-73
2021/12/28 11:25:27;;;;;;;;;;;;;;;;;;5096231;28;19924;-73
2021/12/28 11:28:10;;;;;;;;;;;;;;;;;;5096410;28;19973;-72
2021/12/28 11:30:35;;;;;;;;;;;;;;;;;;5095593;28;19916;-72
2021/12/28 11:33:07;;;;;;;;;;;;;;;;;;5096346;28;20289;-72
2021/12/28 11:35:33;;;;;;;;;;;;;;;;;;5096368;28;19920;-73
2021/12/28 11:37:59;;;;;;;;;;;;;;;;;;5095240;28;19970;-73
2021/12/28 11:40:25;;;;;;;;;;;;;;;;;;5096258;28;19920;-73
2021/12/28 11:42:50;;;;;;;;;;;;;;;;;;5095816;28;20292;-73
2021/12/28 11:45:19;;;;;;;;;;;;;;;;;;5090253;28;20357;-74
2021/12/28 11:47:44;;;;;;;;;;;;;;;;;;5096087;28;19924;-73
2021/12/28 11:50:11;;;;;;;;;;;;;;;;;;5097557;28;19916;-73
2021/12/28 11:52:36;;;;;;;;;;;;;;;;;;5095336;28;19919;-73
2021/12/28 11:55:02;;;;;;;;;;;;;;;;;;5095225;28;19916;-73
2021/12/28 11:57:30;;;;;;;;;;;;;;;;;;5094036;28;19916;-74
2021/12/28 11:59:57;;;;;;;;;;;;;;;;;;5096176;28;19916;-73
2021/12/28 12:02:56;;;;;;;;;;;;;;;;;;5096018;28;19927;-74
2021/12/28 12:05:25;;;;;;;;;;;;;;;;;;5062187;28;20365;-73
2021/12/28 12:08:06;;;;;;;;;;;;;;;;;;5095893;28;19928;-74
2021/12/28 12:10:32;;;;;;;;;;;;;;;;;;5095718;28;19931;-73
2021/12/28 12:13:03;;;;;;;;;;;;;;;;;;5095608;28;19916;-73
2021/12/28 12:15:36;;;;;;;;;;;;;;;;;;5095523;28;19961;-73
2021/12/28 12:18:02;;;;;;;;;;;;;;;;;;5094977;28;19916;-73
2021/12/28 12:20:30;;;;;;;;;;;;;;;;;;5095504;28;19916;-73
2021/12/28 12:22:56;;;;;;;;;;;;;;;;;;5094389;28;20430;-73
2021/12/28 12:25:32;;;;;;;;;;;;;;;;;;5094282;28;19916;-74
2021/12/28 12:28:02;;;;;;;;;;;;;;;;;;5095072;28;19924;-73
2021/12/28 12:30:27;;;;;;;;;;;;;;;;;;5094807;28;19916;-73
2021/12/28 12:33:02;;;;;;;;;;;;;;;;;;5093754;28;19938;-73
2021/12/28 12:35:28;;;;;;;;;;;;;;;;;;5074807;28;20338;-74
2021/12/28 12:37:53;;;;;;;;;;;;;;;;;;5075111;28;19916;-73
2021/12/28 12:40:19;;;;;;;;;;;;;;;;;;5074864;28;19927;-74
2021/12/28 12:43:04;;;;;;;;;;;;;;;;;;5074936;28;19920;-74
2021/12/28 12:45:48;;;;;;;;;;;;;;;;;;5074340;28;19921;-74
2021/12/28 12:48:29;;;;;;;;;;;;;;;;;;5074623;28;20301;-74
2021/12/28 12:50:54;;;;;;;;;;;;;;;;;;5074546;28;19956;-73
2021/12/28 12:53:43;;;;;;;;;;;;;;;;;;5074639;28;19952;-73
2021/12/28 12:56:12;;;;;;;;;;;;;;;;;;5045672;28;19923;-74
2021/12/28 12:58:39;;;;;;;;;;;;;;;;;;5074744;28;20007;-73
2021/12/28 13:01:04;;;;;;;;;;;;;;;;;;5091439;28;19927;-73
2021/12/28 13:03:35;;;;;;;;;;;;;;;;;;5093737;28;20441;-73
2021/12/28 13:06:00;;;;;;;;;;;;;;;;;;5094424;28;20357;-73
2021/12/28 13:08:26;;;;;;;;;;;;;;;;;;5093400;28;19995;-72
2021/12/28 13:10:51;;;;;;;;;;;;;;;;;;5093255;28;20345;-73
2021/12/28 13:13:16;;;;;;;;;;;;;;;;;;5094652;28;19922;-73
2021/12/28 13:15:42;;;;;;;;;;;;;;;;;;5094509;28;19915;-72
2021/12/28 13:18:08;;;;;;;;;;;;;;;;;;5093310;28;19923;-73
2021/12/28 13:20:35;;;;;;;;;;;;;;;;;;5093498;28;19923;-71
2021/12/28 13:23:02;;;;;;;;;;;;;;;;;;5094208;28;20011;-72
2021/12/28 13:25:42;;;;;;;;;;;;;;;;;;5094204;28;19938;-72
2021/12/28 13:28:08;;;;;;;;;;;;;;;;;;5093801;28;20385;-71
2021/12/28 13:30:35;;;;;;;;;;;;;;;;;;5093036;28;20331;-73
2021/12/28 13:33:01;;;;;;;;;;;;;;;;;;5092675;28;20533;-73
2021/12/28 13:35:27;;;;;;;;;;;;;;;;;;5092482;28;19916;-72
2021/12/28 13:37:54;;;;;;;;;;;;;;;;;;5093175;28;19923;-73
2021/12/28 13:40:30;;;;;;;;;;;;;;;;;;5093999;28;19916;-73
2021/12/28 13:42:58;;;;;;;;;;;;;;;;;;5091349;28;19916;-74
2021/12/28 13:45:42;;;;;;;;;;;;;;;;;;5092112;28;19963;-74
2021/12/28 13:48:13;;;;;;;;;;;;;;;;;;5092857;28;20301;-73
2021/12/28 13:50:39;;;;;;;;;;;;;;;;;;5092080;28;19969;-73
2021/12/28 13:53:09;;;;;;;;;;;;;;;;;;5092773;28;20355;-73
2021/12/28 13:55:35;;;;;;;;;;;;;;;;;;5093508;28;19930;-73
2021/12/28 13:58:01;;;;;;;;;;;;;;;;;;5093922;28;19998;-73
2021/12/28 14:00:34;;;;;;;;;;;;;;;;;;5093741;28;19920;-74
2021/12/28 14:03:03;;;;;;;;;;;;;;;;;;5092816;28;19923;-73
2021/12/28 14:05:30;;;;;;;;;;;;;;;;;;5093003;28;19920;-73
2021/12/28 14:07:55;;;;;;;;;;;;;;;;;;5093294;28;20436;-73
2021/12/28 14:10:21;;;;;;;;;;;;;;;;;;5093966;28;19963;-71
2021/12/28 14:13:03;;;;;;;;;;;;;;;;;;5092442;28;19959;-72
2021/12/28 14:15:28;;;;;;;;;;;;;;;;;;5096071;28;20315;-72
2021/12/28 14:17:54;;;;;;;;;;;;;;;;;;5096129;28;19920;-72
2021/12/28 14:20:25;;;;;;;;;;;;;;;;;;5097973;28;19969;-72
2021/12/28 14:22:51;;;;;;;;;;;;;;;;;;5096632;28;19970;-72
2021/12/28 14:25:17;;;;;;;;;;;;;;;;;;5096996;28;19959;-72
2021/12/28 14:27:52;;;;;;;;;;;;;;;;;;5097696;28;19974;-72
2021/12/28 14:30:17;;;;;;;;;;;;;;;;;;5097170;28;19969;-72
2021/12/28 14:32:45;;;;;;;;;;;;;;;;;;5097773;28;19916;-72
2021/12/28 14:35:11;;;;;;;;;;;;;;;;;;5096656;28;19916;-72
2021/12/28 14:37:38;;;;;;;;;;;;;;;;;;5097385;28;19916;-72
2021/12/28 14:40:14;;;;;;;;;;;;;;;;;;5096492;28;19923;-72
2021/12/28 14:42:39;;;;;;;;;;;;;;;;;;5097514;28;19916;-72
2021/12/28 14:45:06;;;;;;;;;;;;;;;;;;5097135;28;19916;-73
2021/12/28 14:47:32;;;;;;;;;;;;;;;;;;5097151;28;19927;-72
2021/12/28 14:50:01;;;;;;;;;;;;;;;;;;5097235;28;19923;-73
2021/12/28 14:52:31;;;;;;;;;;;;;;;;;;5097573;28;19916;-72
2021/12/28 14:55:10;;;;;;;;;;;;;;;;;;5097405;28;19947;-72
2021/12/28 14:57:37;;;;;;;;;;;;;;;;;;5095957;28;19923;-72
2021/12/28 15:00:12;;;;;;;;;;;;;;;;;;5097108;28;19923;-72
2021/12/28 15:02:45;;;;;;;;;;;;;;;;;;5097130;28;19916;-72
2021/12/28 15:05:12;;;;;;;;;;;;;;;;;;5096929;28;19916;-72
2021/12/28 15:07:37;;;;;;;;;;;;;;;;;;5097092;28;20330;-72
2021/12/28 15:10:03;;;;;;;;;;;;;;;;;;5096929;28;20003;-72
2021/12/28 15:12:39;;;;;;;;;;;;;;;;;;5096915;28;19923;-72
2021/12/28 15:15:05;;;;;;;;;;;;;;;;;;5096958;28;20084;-72
2021/12/28 15:17:31;;;;;;;;;;;;;;;;;;5095616;28;20433;-72
2021/12/28 15:19:56;;;;;;;;;;;;;;;;;;5096083;28;19916;-72
2021/12/28 15:22:21;;;;;;;;;;;;;;;;;;5096716;28;19969;-72
2021/12/28 15:24:47;;;;;;;;;;;;;;;;;;5096692;28;19923;-72
2021/12/28 15:27:17;;;;;;;;;;;;;;;;;;5094492;28;19920;-72
2021/12/28 15:29:44;;;;;;;;;;;;;;;;;;5096031;28;19920;-76
2021/12/28 15:32:09;;;;;;;;;;;;;;;;;;5096161;28;19916;-72
2021/12/28 15:34:35;;;;;;;;;;;;;;;;;;5093803;28;20427;-72
2021/12/28 15:37:00;;;;;;;;;;;;;;;;;;5094981;28;19916;-73
2021/12/28 15:39:26;;;;;;;;;;;;;;;;;;5094894;28;20444;-73
2021/12/28 15:41:51;;;;;;;;;;;;;;;;;;5096113;28;19973;-73
2021/12/28 15:44:17;;;;;;;;;;;;;;;;;;5096190;28;20281;-73
2021/12/28 15:46:42;;;;;;;;;;;;;;;;;;5094399;28;20016;-73
2021/12/28 15:49:09;;;;;;;;;;;;;;;;;;5095429;28;20015;-72
2021/12/28 15:51:35;;;;;;;;;;;;;;;;;;5095697;28;20277;-73
2021/12/28 15:54:01;;;;;;;;;;;;;;;;;;5095562;28;19923;-75
2021/12/28 15:56:28;;;;;;;;;;;;;;;;;;5095001;28;20495;-74
2021/12/28 15:58:53;;;;;;;;;;;;;;;;;;5095764;28;19916;-75
2021/12/28 16:01:19;;;;;;;;;;;;;;;;;;5095595;28;19923;-76
2021/12/28 16:03:45;;;;;;;;;;;;;;;;;;5095748;28;19920;-74
2021/12/28 16:06:12;;;;;;;;;;;;;;;;;;5095860;28;20359;-75
2021/12/28 16:08:38;;;;;;;;;;;;;;;;;;5096085;28;19920;-77
2021/12/28 16:11:04;;;;;;;;;;;;;;;;;;5094248;28;19912;-73
2021/12/28 16:13:29;;;;;;;;;;;;;;;;;;5095802;28;19916;-74
2021/12/28 16:15:54;;;;;;;;;;;;;;;;;;5095591;28;20021;-74
2021/12/28 16:18:20;;;;;;;;;;;;;;;;;;5095879;28;19916;-74
2021/12/28 16:20:45;;;;;;;;;;;;;;;;;;5095312;28;20372;-73
2021/12/28 16:23:10;;;;;;;;;;;;;;;;;;5095563;28;19930;-72
2021/12/28 16:25:36;;;;;;;;;;;;;;;;;;5095017;28;19927;-72
2021/12/28 16:28:01;;;;;;;;;;;;;;;;;;5095311;28;20253;-72
2021/12/28 16:30:28;;;;;;;;;;;;;;;;;;5095026;28;20029;-75
2021/12/28 16:32:54;;;;;;;;;;;;;;;;;;5095699;28;19939;-76
2021/12/28 16:35:19;;;;;;;;;;;;;;;;;;5095054;28;19916;-75
2021/12/28 16:37:45;;;;;;;;;;;;;;;;;;5097988;28;19922;-81
2021/12/28 16:40:10;;;;;;;;;;;;;;;;;;5101367;28;19916;-80
2021/12/28 16:42:36;;;;;;;;;;;;;;;;;;5101875;28;20399;-84
2021/12/28 16:45:02;;;;;;;;;;;;;;;;;;5100412;28;19916;-85
2021/12/28 16:47:29;;;;;;;;;;;;;;;;;;5100135;28;19942;-82